Time;durP1;ratioP1;P1;durP2;ratioP2;P2;SDS_P1;SDS_P2;PMS_P1;PMS_P2;Temp;Humidity;BMP_temperature;BMP_pressure;BME280_temperature;BME280_humidity;BME280_pressure;Samples;Min_cycle;Max_cycle;Signal;HPM_P1;HPM_P2
2022/05/30 00:02:14;;;;;;;0.60;0.10;;;12.40;1.00;;;;;;5055252;28;20466;-71
2022/05/30 00:04:42;;;;;;;0.60;0.10;;;12.40;1.00;;;;;;5060694;28;21002;-71
2022/05/30 00:07:10;;;;;;;0.60;0.10;;;12.40;1.00;;;;;;5073021;28;20448;-71
2022/05/30 00:09:38;;;;;;;0.60;0.10;;;12.40;1.00;;;;;;5073674;28;20438;-71
2022/05/30 00:12:07;;;;;;;0.60;0.10;;;12.40;1.00;;;;;;5073691;28;20471;-71
2022/05/30 00:14:36;;;;;;;0.60;0.10;;;12.40;1.00;;;;;;5073769;28;20442;-71
2022/05/30 00:17:04;;;;;;;0.60;0.10;;;12.40;1.00;;;;;;5072851;28;20461;-71
2022/05/30 00:19:32;;;;;;;0.60;0.10;;;12.40;1.00;;;;;;5073608;28;20456;-71
2022/05/30 00:22:00;;;;;;;0.60;0.10;;;12.40;1.00;;;;;;5073539;28;20478;-70
2022/05/30 00:24:29;;;;;;;0.60;0.10;;;;;;;;;;5073700;28;20482;-71
2022/05/30 00:26:57;;;;;;;0.60;0.20;;;12.30;1.00;;;;;;5066522;28;20443;-70
2022/05/30 00:29:25;;;;;;;0.60;0.10;;;12.30;1.00;;;;;;5054163;28;20442;-72
2022/05/30 00:31:54;;;;;;;0.60;0.10;;;12.40;1.00;;;;;;5072146;28;20480;-71
2022/05/30 00:34:22;;;;;;;0.60;0.10;;;12.30;1.00;;;;;;5072196;28;20500;-71
2022/05/30 00:36:50;;;;;;;0.60;0.10;;;12.30;1.00;;;;;;5070817;28;20456;-72
2022/05/30 00:39:18;;;;;;;0.60;0.10;;;12.30;1.00;;;;;;5071163;28;20448;-71
2022/05/30 00:41:46;;;;;;;0.60;0.10;;;12.30;1.00;;;;;;5072369;28;20470;-71
2022/05/30 00:44:14;;;;;;;0.60;0.10;;;12.30;1.00;;;;;;5072326;28;20484;-71
2022/05/30 00:46:42;;;;;;;0.60;0.10;;;12.30;1.00;;;;;;5072295;28;20553;-72
2022/05/30 00:49:14;;;;;;;0.60;0.10;;;12.20;1.00;;;;;;5072278;28;20448;-71
2022/05/30 00:51:45;;;;;;;0.60;0.10;;;12.20;1.00;;;;;;5072167;28;20465;-71
2022/05/30 00:54:18;;;;;;;0.60;0.10;;;12.20;1.00;;;;;;5049775;28;20509;-72
2022/05/30 00:56:50;;;;;;;0.60;0.10;;;12.20;1.00;;;;;;5051374;28;20956;-71
2022/05/30 00:59:18;;;;;;;0.60;0.10;;;12.20;1.00;;;;;;5070359;28;20441;-71
2022/05/30 01:01:47;;;;;;;0.60;0.10;;;12.10;1.00;;;;;;5071697;28;20626;-71
2022/05/30 01:07:08;;;;;;;0.60;0.10;;;12.10;1.00;;;;;;5071969;28;20456;-71
2022/05/30 01:09:40;;;;;;;0.60;0.20;;;12.10;1.00;;;;;;5072191;28;20450;-71
2022/05/30 01:12:11;;;;;;;0.60;0.10;;;12.00;1.00;;;;;;5062008;28;20503;-71
2022/05/30 01:14:42;;;;;;;0.60;0.10;;;12.00;1.00;;;;;;5052686;28;20545;-72
2022/05/30 01:17:13;;;;;;;0.60;0.10;;;11.90;1.00;;;;;;5052271;28;20450;-72
2022/05/30 01:19:55;;;;;;;0.60;0.10;;;11.80;1.00;;;;;;5053281;28;20554;-71
2022/05/30 01:22:57;;;;;;;0.60;0.10;;;11.80;1.00;;;;;;5052811;28;20466;-71
2022/05/30 01:25:45;;;;;;;0.60;0.10;;;11.70;1.00;;;;;;5021250;28;20473;-71
2022/05/30 01:28:27;;;;;;;0.60;0.10;;;11.70;1.00;;;;;;5054222;28;20442;-71
2022/05/30 01:30:54;;;;;;;0.60;0.10;;;11.60;1.00;;;;;;5070273;28;20503;-70
2022/05/30 01:33:22;;;;;;;0.60;0.10;;;11.60;1.00;;;;;;5071466;28;20951;-71
2022/05/30 01:35:50;;;;;;;0.60;0.10;;;11.60;1.00;;;;;;5071112;28;20448;-71
2022/05/30 01:38:18;;;;;;;0.60;0.10;;;11.60;1.00;;;;;;5070826;28;20468;-71
2022/05/30 01:40:46;;;;;;;0.60;0.10;;;11.50;1.00;;;;;;5071547;28;20448;-71
2022/05/30 01:43:13;;;;;;;0.60;0.10;;;11.50;1.00;;;;;;5071153;28;20469;-71
2022/05/30 01:45:43;;;;;;;0.60;0.10;;;11.50;1.00;;;;;;5071429;28;20481;-71
2022/05/30 01:48:11;;;;;;;0.60;0.10;;;11.50;1.00;;;;;;5071131;28;20441;-71
2022/05/30 01:50:38;;;;;;;0.60;0.10;;;11.50;1.00;;;;;;5071002;28;20798;-71
2022/05/30 01:53:06;;;;;;;0.60;0.10;;;11.50;1.00;;;;;;5071300;28;20488;-71
2022/05/30 01:55:34;;;;;;;0.60;0.10;;;11.40;1.00;;;;;;5071131;28;20904;-71
2022/05/30 01:58:02;;;;;;;0.60;0.10;;;11.40;1.00;;;;;;5070809;28;20442;-71
2022/05/30 02:00:30;;;;;;;0.60;0.10;;;11.40;1.00;;;;;;5071282;28;20472;-72
2022/05/30 02:03:00;;;;;;;0.60;0.10;;;11.40;1.00;;;;;;5071164;28;21051;-72
2022/05/30 02:05:30;;;;;;;0.60;0.10;;;11.40;1.00;;;;;;5070321;28;20830;-71
2022/05/30 02:07:58;;;;;;;0.60;0.10;;;11.30;1.00;;;;;;5070009;28;20471;-71
2022/05/30 02:10:26;;;;;;;0.60;0.10;;;11.30;1.00;;;;;;5070439;28;20951;-71
2022/05/30 02:12:54;;;;;;;0.60;0.10;;;11.20;1.00;;;;;;5070545;28;20469;-71
2022/05/30 02:15:22;;;;;;;0.60;0.10;;;11.20;1.00;;;;;;5070669;28;20445;-70
2022/05/30 02:17:49;;;;;;;0.60;0.10;;;11.20;1.00;;;;;;5070288;28;20452;-70
2022/05/30 02:20:18;;;;;;;0.60;0.10;;;11.20;1.00;;;;;;5070870;28;20557;-70
2022/05/30 02:22:46;;;;;;;0.60;0.10;;;11.20;1.00;;;;;;5070956;28;20465;-70
2022/05/30 02:25:15;;;;;;;0.60;0.10;;;11.20;1.00;;;;;;5074704;28;20484;-70
2022/05/30 02:27:43;;;;;;;0.60;0.10;;;11.20;1.00;;;;;;5062280;28;20449;-70
2022/05/30 02:30:11;;;;;;;0.60;0.10;;;11.10;1.00;;;;;;5055540;28;20443;-71
2022/05/30 02:32:39;;;;;;;0.60;0.10;;;11.10;1.00;;;;;;5066848;28;20848;-71
2022/05/30 02:37:55;;;;;;;0.60;0.10;;;11.10;1.00;;;;;;5073352;28;20441;-70
2022/05/30 02:40:22;;;;;;;0.60;0.10;;;11.00;1.00;;;;;;5074951;28;20499;-70
2022/05/30 02:42:50;;;;;;;0.60;0.10;;;11.00;1.00;;;;;;5074487;28;20488;-72
2022/05/30 02:45:18;;;;;;;0.60;0.10;;;11.00;1.00;;;;;;5074619;28;20975;-71
2022/05/30 02:47:46;;;;;;;0.60;0.30;;;11.00;1.00;;;;;;5066810;28;20537;-71
2022/05/30 02:50:15;;;;;;;0.60;0.10;;;11.00;1.00;;;;;;5057949;28;20456;-70
2022/05/30 02:52:42;;;;;;;0.60;0.10;;;11.00;1.00;;;;;;5074510;28;20461;-70
2022/05/30 02:55:11;;;;;;;0.60;0.10;;;11.00;1.00;;;;;;5074517;28;20461;-71
2022/05/30 02:57:39;;;;;;;0.60;0.10;;;11.00;1.00;;;;;;5074228;28;20445;-71
2022/05/30 03:00:09;;;;;;;0.60;0.20;;;11.00;1.00;;;;;;5074202;28;20445;-71
2022/05/30 03:02:37;;;;;;;0.60;0.10;;;10.90;1.00;;;;;;5074359;28;20466;-71
2022/05/30 03:05:05;;;;;;;0.60;0.10;;;10.90;1.00;;;;;;5073897;28;20454;-71
2022/05/30 03:07:33;;;;;;;0.60;0.10;;;10.90;1.00;;;;;;5073854;28;20548;-71
2022/05/30 03:10:01;;;;;;;0.60;0.10;;;10.90;1.00;;;;;;5074113;28;20443;-71
2022/05/30 03:12:30;;;;;;;0.60;0.10;;;10.90;1.00;;;;;;5074502;28;20469;-71
2022/05/30 03:14:58;;;;;;;0.60;0.10;;;10.90;1.00;;;;;;5073897;28;20442;-70
2022/05/30 03:17:26;;;;;;;0.60;0.10;;;10.90;1.00;;;;;;5073979;28;20448;-71
2022/05/30 03:19:54;;;;;;;0.60;0.10;;;10.90;1.00;;;;;;5074534;28;20459;-70
2022/05/30 03:22:21;;;;;;;0.60;0.10;;;10.90;1.00;;;;;;5074090;28;20462;-71
2022/05/30 03:24:49;;;;;;;0.60;0.10;;;10.80;1.00;;;;;;5074095;28;20459;-71
2022/05/30 03:27:17;;;;;;;0.60;0.10;;;10.80;1.00;;;;;;5073781;28;20474;-71
2022/05/30 03:29:46;;;;;;;0.60;0.10;;;10.80;1.00;;;;;;5074267;28;20445;-70
2022/05/30 03:32:14;;;;;;;0.60;0.10;;;10.80;1.00;;;;;;5074084;28;20912;-70
2022/05/30 03:34:42;;;;;;;0.60;0.10;;;10.80;1.00;;;;;;5073564;28;20958;-70
2022/05/30 03:37:10;;;;;;;0.60;0.10;;;;;;;;;;5073845;28;20446;-70
2022/05/30 03:39:38;;;;;;;0.60;0.10;;;10.80;1.00;;;;;;5073507;28;20495;-70
2022/05/30 03:42:13;;;;;;;0.60;0.20;;;10.70;1.00;;;;;;5073751;28;20595;-70
2022/05/30 03:44:40;;;;;;;0.60;0.10;;;10.70;1.00;;;;;;5073608;28;20441;-70
2022/05/30 03:47:10;;;;;;;0.60;0.10;;;10.60;1.00;;;;;;5073415;28;20599;-70
2022/05/30 03:49:39;;;;;;;0.60;0.10;;;10.60;1.00;;;;;;5075368;28;20916;-70
2022/05/30 03:52:08;;;;;;;0.60;0.10;;;10.60;1.00;;;;;;5074047;28;20573;-70
2022/05/30 03:54:36;;;;;;;0.60;0.10;;;10.60;1.00;;;;;;5055593;28;20435;-70
2022/05/30 03:57:04;;;;;;;0.60;0.10;;;10.70;1.00;;;;;;5065746;28;20449;-70
2022/05/30 03:59:32;;;;;;;0.60;0.10;;;10.70;1.00;;;;;;5073784;28;20544;-70
2022/05/30 04:02:01;;;;;;;0.60;0.10;;;10.70;1.00;;;;;;5073751;28;20975;-70
2022/05/30 04:04:30;;;;;;;0.60;0.10;;;10.70;1.00;;;;;;5073537;28;20472;-69
2022/05/30 04:06:58;;;;;;;0.60;0.10;;;10.70;1.00;;;;;;5073133;28;20987;-70
2022/05/30 04:09:26;;;;;;;0.60;0.10;;;10.70;1.00;;;;;;5072752;28;20441;-70
2022/05/30 04:11:54;;;;;;;0.60;0.10;;;10.80;1.00;;;;;;5072884;28;21033;-70
2022/05/30 04:14:21;;;;;;;0.60;0.10;;;10.70;1.00;;;;;;5073327;28;20449;-70
2022/05/30 04:16:49;;;;;;;0.60;0.10;;;10.70;1.00;;;;;;5072828;28;20441;-70
2022/05/30 04:19:18;;;;;;;0.60;0.10;;;10.80;1.00;;;;;;5072980;28;20445;-71
2022/05/30 04:21:47;;;;;;;0.60;0.10;;;10.80;1.00;;;;;;5073097;28;20462;-71
2022/05/30 04:24:14;;;;;;;0.60;0.10;;;10.80;1.00;;;;;;5062774;28;20447;-70
2022/05/30 04:26:44;;;;;;;0.60;0.10;;;10.80;1.00;;;;;;5058005;28;20504;-70
2022/05/30 04:29:11;;;;;;;0.60;0.10;;;10.80;1.00;;;;;;5073022;28;20457;-70
2022/05/30 04:31:39;;;;;;;0.60;0.20;;;10.80;1.00;;;;;;5072635;28;20473;-70
2022/05/30 04:34:08;;;;;;;0.60;0.10;;;10.80;1.00;;;;;;5072282;28;20445;-71
2022/05/30 04:36:36;;;;;;;0.60;0.10;;;10.80;1.00;;;;;;5069230;28;20803;-70
2022/05/30 04:39:05;;;;;;;0.60;0.10;;;10.90;1.00;;;;;;5053068;28;20833;-70
2022/05/30 04:41:33;;;;;;;0.60;0.10;;;10.90;1.00;;;;;;5052998;28;20470;-70
2022/05/30 04:44:02;;;;;;;0.60;0.10;;;11.00;1.00;;;;;;5057666;28;20453;-70
2022/05/30 04:46:29;;;;;;;0.60;0.13;;;11.00;1.00;;;;;;5072228;28;20875;-71
2022/05/30 04:48:58;;;;;;;0.60;0.20;;;11.10;1.00;;;;;;5062210;28;20465;-70
2022/05/30 04:51:30;;;;;;;0.60;0.10;;;11.10;1.00;;;;;;5053879;28;20489;-69
2022/05/30 04:53:58;;;;;;;0.60;0.10;;;11.10;1.00;;;;;;5063402;28;20641;-72
2022/05/30 04:56:27;;;;;;;0.60;0.10;;;11.50;1.00;;;;;;5061664;28;20450;-71
2022/05/30 04:58:58;;;;;;;0.60;0.10;;;11.80;1.00;;;;;;5052412;28;20442;-70
2022/05/30 05:01:27;;;;;;;0.60;0.10;;;12.10;1.00;;;;;;5053038;28;20549;-69
2022/05/30 05:03:55;;;;;;;0.60;0.10;;;12.10;1.00;;;;;;5056342;28;20817;-70
2022/05/30 05:06:23;;;;;;;0.60;0.10;;;12.20;1.00;;;;;;5059722;28;20510;-70
2022/05/30 05:08:55;;;;;;;0.60;0.20;;;12.10;1.00;;;;;;5065462;28;20452;-71
2022/05/30 05:11:25;;;;;;;0.60;0.10;;;12.00;1.00;;;;;;5071562;28;20434;-70
2022/05/30 05:13:55;;;;;;;0.60;0.20;;;12.00;1.00;;;;;;5071401;28;20955;-71
2022/05/30 05:16:25;;;;;;;0.60;0.10;;;11.90;1.00;;;;;;5061178;28;20955;-71
2022/05/30 05:18:54;;;;;;;0.60;0.10;;;11.90;1.00;;;;;;5065363;28;20564;-70
2022/05/30 05:21:24;;;;;;;0.60;0.20;;;11.80;1.00;;;;;;5069695;28;20478;-70
2022/05/30 05:23:57;;;;;;;0.60;0.10;;;11.70;1.00;;;;;;5062088;28;20437;-69
2022/05/30 05:26:25;;;;;;;0.60;0.10;;;11.60;1.00;;;;;;5061368;28;20959;-71
2022/05/30 05:28:55;;;;;;;0.60;0.10;;;11.50;1.00;;;;;;5066752;28;20461;-71
2022/05/30 05:31:25;;;;;;;0.60;0.10;;;11.50;1.00;;;;;;5060350;28;20434;-69
2022/05/30 05:33:55;;;;;;;0.60;0.23;;;11.50;1.00;;;;;;5060281;28;20433;-71
2022/05/30 05:36:25;;;;;;;0.60;0.10;;;11.40;1.00;;;;;;5070629;28;20438;-70
2022/05/30 05:38:53;;;;;;;0.60;0.10;;;;;;;;;;5071569;28;20809;-69
2022/05/30 05:41:23;;;;;;;0.60;0.10;;;11.50;1.00;;;;;;5067684;28;20489;-69
2022/05/30 05:43:53;;;;;;;0.60;0.10;;;11.50;1.00;;;;;;5064747;28;20834;-69
2022/05/30 05:46:23;;;;;;;0.60;0.10;;;11.50;1.00;;;;;;5062674;28;20456;-69
2022/05/30 05:48:52;;;;;;;0.60;0.20;;;11.60;1.00;;;;;;5051342;28;20482;-71
2022/05/30 05:51:21;;;;;;;0.60;0.10;;;11.70;1.00;;;;;;5050546;28;20556;-69
2022/05/30 05:53:49;;;;;;;0.60;0.10;;;11.70;1.00;;;;;;5051084;28;20443;-70
2022/05/30 05:56:19;;;;;;;0.60;0.10;;;11.80;1.00;;;;;;5061007;28;20471;-70
2022/05/30 05:58:48;;;;;;;0.60;0.10;;;11.90;1.00;;;;;;5070171;28;20438;-71
2022/05/30 06:01:18;;;;;;;0.60;0.10;;;11.90;1.00;;;;;;5070654;28;20446;-70
2022/05/30 06:03:48;;;;;;;0.60;0.10;;;11.90;1.00;;;;;;5070897;28;20449;-69
2022/05/30 06:06:16;;;;;;;0.60;0.10;;;12.00;1.00;;;;;;5070196;28;20464;-70
2022/05/30 06:08:44;;;;;;;0.60;0.10;;;12.00;1.00;;;;;;5069812;28;20539;-69
2022/05/30 06:11:15;;;;;;;0.60;0.10;;;12.10;1.00;;;;;;5070858;28;20441;-70
2022/05/30 06:13:47;;;;;;;0.60;0.10;;;12.10;1.00;;;;;;5071537;28;20927;-71
2022/05/30 06:16:16;;;;;;;0.60;0.10;;;;;;;;;;5070390;28;20447;-70
2022/05/30 06:18:47;;;;;;;0.70;0.57;;;12.10;1.00;;;;;;5071334;28;20483;-70
2022/05/30 06:21:15;;;;;;;0.60;0.10;;;12.20;1.00;;;;;;5071629;28;20445;-72
2022/05/30 06:23:46;;;;;;;0.60;0.10;;;;;;;;;;5072766;28;20493;-72
2022/05/30 06:26:15;;;;;;;0.60;0.10;;;12.20;1.00;;;;;;5078916;28;20511;-71
2022/05/30 06:28:44;;;;;;;0.60;0.10;;;12.30;1.00;;;;;;5075969;28;20980;-71
2022/05/30 06:31:14;;;;;;;0.60;0.10;;;12.40;1.00;;;;;;5066467;28;20442;-70
2022/05/30 06:33:42;;;;;;;0.60;0.10;;;12.50;1.00;;;;;;5072536;28;20452;-70
2022/05/30 06:36:15;;;;;;;0.60;0.10;;;12.50;1.00;;;;;;5057385;28;20908;-72
2022/05/30 06:38:46;;;;;;;0.60;0.13;;;12.60;1.00;;;;;;5061317;28;20443;-71
2022/05/30 06:41:16;;;;;;;0.60;0.10;;;12.80;1.00;;;;;;5062978;28;20517;-71
2022/05/30 06:43:52;;;;;;;0.60;0.10;;;12.70;1.00;;;;;;5051606;28;20549;-71
2022/05/30 06:46:20;;;;;;;0.60;0.10;;;12.90;1.00;;;;;;5050551;28;20456;-71
2022/05/30 06:48:51;;;;;;;0.60;0.10;;;13.00;1.00;;;;;;5056710;28;21019;-71
2022/05/30 06:51:20;;;;;;;0.60;0.10;;;13.10;1.00;;;;;;5071024;28;20441;-71
2022/05/30 06:53:48;;;;;;;0.90;0.60;;;;;;;;;;5070966;28;20813;-72
2022/05/30 06:56:19;;;;;;;0.60;0.10;;;13.10;1.00;;;;;;5060854;28;20451;-71
2022/05/30 06:58:50;;;;;;;0.60;0.10;;;13.00;1.00;;;;;;5057552;28;20506;-71
2022/05/30 07:01:19;;;;;;;0.60;0.10;;;;;;;;;;5050681;28;20450;-73
2022/05/30 07:03:47;;;;;;;0.60;0.13;;;13.00;1.00;;;;;;5062452;28;20759;-70
2022/05/30 07:06:17;;;;;;;0.60;0.10;;;13.10;1.00;;;;;;5061090;28;20530;-70
2022/05/30 07:08:47;;;;;;;0.60;0.10;;;13.10;1.00;;;;;;5058803;28;20545;-71
2022/05/30 07:11:16;;;;;;;0.60;0.10;;;13.20;1.00;;;;;;5069624;28;20464;-69
2022/05/30 07:13:45;;;;;;;0.60;0.10;;;13.30;1.00;;;;;;5064662;28;20517;-70
2022/05/30 07:16:13;;;;;;;0.60;0.10;;;13.30;1.00;;;;;;5056590;28;20449;-71
2022/05/30 07:21:25;;;;;;;0.60;0.10;;;;;;;;;;5055951;28;20479;-72
2022/05/30 07:23:55;;;;;;;0.60;0.10;;;;;;;;;;5061156;28;20477;-71
2022/05/30 07:26:24;;;;;;;0.60;0.10;;;13.70;1.00;;;;;;5062318;28;20505;-71
2022/05/30 07:28:54;;;;;;;0.60;0.10;;;;;;;;;;5079197;28;20583;-72
2022/05/30 07:31:25;;;;;;;0.60;0.10;;;13.80;99.90;;;;;;5076416;28;20444;-71
2022/05/30 07:33:53;;;;;;;0.60;0.10;;;13.80;99.90;;;;;;5074028;28;20449;-71
2022/05/30 07:36:24;;;;;;;0.60;0.10;;;13.80;99.90;;;;;;5074176;28;20445;-71
2022/05/30 07:38:56;;;;;;;0.60;0.10;;;13.80;99.90;;;;;;5073914;28;20438;-70
2022/05/30 07:41:26;;;;;;;0.60;0.10;;;13.80;99.90;;;;;;5074168;28;20479;-70
2022/05/30 07:43:54;;;;;;;0.60;0.20;;;13.80;99.90;;;;;;5074046;28;20441;-70
2022/05/30 07:46:22;;;;;;;0.60;0.20;;;13.80;99.90;;;;;;5071186;28;20464;-71
2022/05/30 07:48:51;;;;;;;0.60;0.10;;;14.00;99.90;;;;;;5054839;28;21055;-71
2022/05/30 07:51:19;;;;;;;0.60;0.10;;;;;;;;;;5054134;28;20438;-70
2022/05/30 07:53:48;;;;;;;0.60;0.10;;;14.10;99.90;;;;;;5067188;28;20473;-70
2022/05/30 07:56:19;;;;;;;0.60;0.10;;;14.10;99.90;;;;;;5070461;28;20444;-72
2022/05/30 07:58:48;;;;;;;0.60;0.20;;;14.20;99.90;;;;;;5073946;28;20500;-70
2022/05/30 08:01:21;;;;;;;0.60;0.10;;;14.20;99.90;;;;;;5074219;28;20441;-70
2022/05/30 08:03:51;;;;;;;0.60;0.10;;;14.20;99.90;;;;;;5069931;28;20458;-72
2022/05/30 08:06:21;;;;;;;0.60;0.20;;;14.10;99.90;;;;;;5064787;28;20464;-72
2022/05/30 08:08:49;;;;;;;0.60;0.10;;;14.00;99.90;;;;;;5067620;28;20567;-71
2022/05/30 08:11:19;;;;;;;0.60;0.10;;;14.10;99.90;;;;;;5055373;28;20559;-71
2022/05/30 08:13:47;;;;;;;0.60;0.10;;;14.20;99.90;;;;;;5055346;28;20463;-71
2022/05/30 08:16:17;;;;;;;0.60;0.10;;;14.30;99.90;;;;;;5061737;28;20447;-70
2022/05/30 08:19:05;;;;;;;0.60;0.10;;;14.30;99.90;;;;;;5072933;28;20446;-72
2022/05/30 08:21:37;;;;;;;0.60;0.10;;;14.50;99.90;;;;;;5061465;28;20467;-71
2022/05/30 08:24:06;;;;;;;0.60;0.10;;;14.50;99.90;;;;;;5070935;28;20449;-72
2022/05/30 08:26:35;;;;;;;0.60;0.10;;;14.60;99.90;;;;;;5056120;28;20448;-70
2022/05/30 08:29:03;;;;;;;0.60;0.10;;;14.70;99.90;;;;;;5053166;28;20484;-71
2022/05/30 08:31:31;;;;;;;0.60;0.10;;;14.70;99.90;;;;;;5064261;28;20483;-71
2022/05/30 08:33:59;;;;;;;0.60;0.10;;;14.70;99.90;;;;;;5064486;28;20489;-71
2022/05/30 08:36:27;;;;;;;0.60;0.20;;;14.70;99.90;;;;;;5071016;28;20460;-71
2022/05/30 08:41:46;;;;;;;0.60;0.10;;;;;;;;;;5072787;28;20531;-70
2022/05/30 08:41:47;;;;;;;0.80;0.30;;;14.60;99.90;;;;;;5059488;28;20479;-70
2022/05/30 08:44:16;;;;;;;0.60;0.10;;;14.70;99.90;;;;;;5052228;28;20446;-69
2022/05/30 08:46:55;;;;;;;0.60;0.10;;;14.70;99.90;;;;;;5052295;28;21006;-71
2022/05/30 08:49:27;;;;;;;0.60;0.20;;;14.80;99.90;;;;;;5054154;28;20487;-71
2022/05/30 08:52:34;;;;;;;0.60;0.10;;;14.90;99.90;;;;;;5063562;28;20465;-71
2022/05/30 08:55:16;;;;;;;0.60;0.10;;;14.90;99.90;;;;;;5067473;28;20456;-71
2022/05/30 08:57:54;;;;;;;0.60;0.10;;;14.90;99.90;;;;;;5065302;28;20457;-72
2022/05/30 09:00:29;;;;;;;0.60;0.10;;;15.00;99.90;;;;;;5073906;28;20850;-71
2022/05/30 09:03:05;;;;;;;0.60;0.10;;;15.10;99.90;;;;;;5066127;28;20542;-70
2022/05/30 09:05:39;;;;;;;0.60;0.20;;;15.30;99.90;;;;;;5072234;28;20503;-71
2022/05/30 09:08:23;;;;;;;0.60;0.10;;;15.40;99.90;;;;;;5071879;28;20446;-71
2022/05/30 09:10:57;;;;;;;0.60;0.10;;;15.40;99.90;;;;;;5072894;28;20447;-71
2022/05/30 09:13:32;;;;;;;0.60;0.10;;;15.40;99.90;;;;;;5071738;28;20530;-70
2022/05/30 09:16:07;;;;;;;0.60;0.10;;;15.50;99.90;;;;;;5072414;28;20445;-71
2022/05/30 09:18:44;;;;;;;0.60;0.10;;;15.60;99.90;;;;;;5071983;28;20821;-70
2022/05/30 09:21:14;;;;;;;0.60;0.10;;;15.70;99.90;;;;;;5058898;28;20943;-70
2022/05/30 09:23:42;;;;;;;0.60;0.10;;;15.70;99.90;;;;;;5055657;28;20503;-70
2022/05/30 09:26:13;;;;;;;0.60;0.10;;;15.60;99.90;;;;;;5065050;28;20460;-70
2022/05/30 09:28:45;;;;;;;0.60;0.10;;;15.60;99.90;;;;;;5062333;28;20898;-69
2022/05/30 09:31:24;;;;;;;0.60;0.10;;;15.70;99.90;;;;;;5063203;28;20445;-69
2022/05/30 09:33:54;;;;;;;0.60;0.10;;;15.70;99.90;;;;;;5065677;28;20459;-70
2022/05/30 09:36:24;;;;;;;0.60;0.10;;;15.70;99.90;;;;;;5071176;28;20448;-70
2022/05/30 09:38:58;;;;;;;0.60;0.10;;;15.70;99.90;;;;;;5071658;28;20451;-70
2022/05/30 09:41:28;;;;;;;0.60;0.10;;;15.80;99.90;;;;;;5070786;28;20518;-70
2022/05/30 09:44:01;;;;;;;0.60;0.10;;;15.80;99.90;;;;;;5071308;28;20448;-70
2022/05/30 09:46:36;;;;;;;0.60;0.10;;;15.80;99.90;;;;;;5071230;28;20452;-70
2022/05/30 09:49:11;;;;;;;0.60;0.10;;;15.90;99.90;;;;;;5071535;28;20523;-69
2022/05/30 09:51:43;;;;;;;0.60;0.10;;;15.90;99.90;;;;;;5071420;28;20468;-69
2022/05/30 09:54:14;;;;;;;0.60;0.10;;;15.90;99.90;;;;;;5058815;28;20809;-70
2022/05/30 09:56:45;;;;;;;0.60;0.10;;;15.80;99.90;;;;;;5061805;28;20874;-69
2022/05/30 09:59:35;;;;;;;0.60;0.20;;;15.90;99.90;;;;;;5066651;28;20458;-69
2022/05/30 10:02:04;;;;;;;0.60;0.10;;;15.90;99.90;;;;;;5070285;28;21191;-69
2022/05/30 10:04:38;;;;;;;0.60;0.10;;;15.90;99.90;;;;;;5060216;28;20454;-69
2022/05/30 10:07:10;;;;;;;0.60;0.10;;;15.90;99.90;;;;;;5052030;28;20456;-70
2022/05/30 10:09:50;;;;;;;0.60;0.10;;;15.90;99.90;;;;;;5048794;28;20592;-70
2022/05/30 10:12:29;;;;;;;0.60;0.10;;;15.90;99.90;;;;;;5051434;28;20461;-68
2022/05/30 10:14:59;;;;;;;0.60;0.10;;;15.90;99.90;;;;;;5050688;28;20455;-70
2022/05/30 10:17:31;;;;;;;0.60;0.10;;;16.00;99.90;;;;;;5068815;28;20456;-70
2022/05/30 10:20:01;;;;;;;0.60;0.10;;;16.00;99.90;;;;;;5071060;28;20475;-69
2022/05/30 10:28:39;;;;;;;0.60;0.10;;;16.40;99.90;;;;;;5059288;28;20493;-69
2022/05/30 10:31:17;;;;;;;0.60;0.10;;;16.40;99.90;;;;;;5054462;28;20506;-69
2022/05/30 10:34:07;;;;;;;0.60;0.10;;;16.40;99.90;;;;;;5055740;28;20461;-70
2022/05/30 10:36:56;;;;;;;0.60;0.10;;;16.60;99.90;;;;;;5062301;28;20478;-70
2022/05/30 10:39:55;;;;;;;0.60;0.10;;;16.60;99.90;;;;;;5057061;28;20533;-69
2022/05/30 10:42:28;;;;;;;0.60;0.13;;;16.90;99.90;;;;;;5060531;28;20983;-68
2022/05/30 10:45:07;;;;;;;0.60;0.10;;;17.20;99.90;;;;;;5055992;28;20727;-69
2022/05/30 10:47:41;;;;;;;0.60;0.10;;;17.20;99.90;;;;;;5069709;28;20465;-69
2022/05/30 10:50:16;;;;;;;0.60;0.10;;;17.30;99.90;;;;;;5065679;28;20829;-70
2022/05/30 10:52:49;;;;;;;0.60;0.13;;;17.30;99.90;;;;;;5065768;28;20552;-69
2022/05/30 10:55:25;;;;;;;0.60;0.17;;;17.20;99.90;;;;;;5072793;28;20465;-69
2022/05/30 10:58:00;;;;;;;0.60;0.10;;;17.30;99.90;;;;;;5066396;28;20457;-68
2022/05/30 11:00:33;;;;;;;0.60;0.10;;;17.30;99.90;;;;;;5061628;28;20463;-69
2022/05/30 11:03:11;;;;;;;0.60;0.33;;;17.50;99.90;;;;;;5064590;28;20567;-70
2022/05/30 11:05:48;;;;;;;0.60;0.20;;;17.50;99.90;;;;;;5071588;28;20441;-70
2022/05/30 11:08:24;;;;;;;0.60;0.10;;;17.60;99.90;;;;;;5078072;28;20523;-70
2022/05/30 11:10:58;;;;;;;0.60;0.10;;;17.70;99.90;;;;;;5070001;28;20489;-71
2022/05/30 11:13:40;;;;;;;0.60;0.10;;;17.80;99.90;;;;;;5056446;28;20519;-71
2022/05/30 11:16:14;;;;;;;0.60;0.20;;;18.00;99.90;;;;;;5071567;28;20460;-70
2022/05/30 11:18:54;;;;;;;0.60;0.10;;;18.00;99.90;;;;;;5056988;28;20460;-69
2022/05/30 11:21:30;;;;;;;0.60;0.20;;;18.30;99.90;;;;;;5060831;28;21016;-70
2022/05/30 11:24:01;;;;;;;0.60;0.10;;;18.30;99.90;;;;;;5071839;28;20445;-68
2022/05/30 11:27:07;;;;;;;0.60;0.10;;;18.40;99.90;;;;;;5062416;28;20513;-69
2022/05/30 11:29:55;;;;;;;0.60;0.10;;;18.70;99.90;;;;;;5077128;28;20469;-70
2022/05/30 11:32:41;;;;;;;0.60;0.10;;;18.70;99.90;;;;;;5070956;28;20478;-70
2022/05/30 11:35:26;;;;;;;0.60;0.17;;;18.60;99.90;;;;;;5072715;28;20445;-69
2022/05/30 11:38:06;;;;;;;0.60;0.10;;;18.30;99.90;;;;;;5071402;28;20866;-70
2022/05/30 11:40:40;;;;;;;0.60;0.10;;;18.20;99.90;;;;;;5065712;28;20453;-69
2022/05/30 11:43:41;;;;;;;0.60;0.10;;;18.20;99.90;;;;;;5064965;28;20559;-70
2022/05/30 11:46:22;;;;;;;0.60;0.17;;;18.20;99.90;;;;;;5051212;28;20462;-70
2022/05/30 11:48:58;;;;;;;0.60;0.20;;;18.20;99.90;;;;;;5060617;28;21127;-70
2022/05/30 11:51:40;;;;;;;0.60;0.20;;;18.00;99.90;;;;;;5059319;28;20474;-71
2022/05/30 11:54:31;;;;;;;0.60;0.20;;;17.80;99.90;;;;;;5062652;28;20442;-71
2022/05/30 11:57:10;;;;;;;0.60;0.13;;;17.80;99.90;;;;;;5057673;28;20449;-69
2022/05/30 12:00:05;;;;;;;0.60;0.20;;;17.50;99.90;;;;;;5054831;28;20464;-69
2022/05/30 12:02:52;;;;;;;0.60;0.10;;;17.40;99.90;;;;;;5053496;28;20493;-69
2022/05/30 12:05:50;;;;;;;0.60;0.10;;;17.40;99.90;;;;;;5054801;28;20500;-71
2022/05/30 12:08:46;;;;;;;0.60;0.10;;;17.40;99.90;;;;;;5056503;28;20960;-72
2022/05/30 12:11:49;;;;;;;1.03;0.93;;;17.40;99.90;;;;;;5066369;28;20503;-72
2022/05/30 12:14:47;;;;;;;0.60;0.10;;;17.40;99.90;;;;;;5063992;28;20561;-73
2022/05/30 12:17:29;;;;;;;0.60;0.10;;;17.50;99.90;;;;;;5064465;28;20446;-72
2022/05/30 12:25:48;;;;;;;0.60;0.20;;;17.80;99.90;;;;;;5069388;28;20445;-72
2022/05/30 12:28:53;;;;;;;0.60;0.10;;;18.10;99.90;;;;;;5064361;28;20452;-73
2022/05/30 12:31:41;;;;;;;0.60;0.10;;;18.20;99.90;;;;;;5031790;28;20838;-72
2022/05/30 12:34:09;;;;;;;0.60;0.20;;;18.30;99.90;;;;;;5051202;28;20446;-73
2022/05/30 12:36:46;;;;;;;0.60;0.10;;;18.40;99.90;;;;;;5058460;28;20464;-73
2022/05/30 12:39:36;;;;;;;0.60;0.10;;;18.40;99.90;;;;;;5059364;28;20437;-73
2022/05/30 12:42:09;;;;;;;0.60;0.10;;;18.30;99.90;;;;;;5051549;28;20885;-72
2022/05/30 12:44:55;;;;;;;0.60;0.10;;;18.00;99.90;;;;;;5067581;28;20439;-73
2022/05/30 12:47:30;;;;;;;0.60;0.10;;;18.20;99.90;;;;;;5054105;28;20466;-72
2022/05/30 12:50:40;;;;;;;0.60;0.10;;;18.10;99.90;;;;;;5060940;28;20472;-73
2022/05/30 12:53:08;;;;;;;0.60;0.10;;;18.00;99.90;;;;;;4976903;28;20452;-73
2022/05/30 12:55:43;;;;;;;0.60;0.10;;;18.00;99.90;;;;;;4972718;28;20450;-73
2022/05/30 12:58:14;;;;;;;0.60;0.10;;;18.00;99.90;;;;;;5024660;28;20562;-72
2022/05/30 13:01:10;;;;;;;0.70;0.30;;;18.10;99.90;;;;;;5060444;28;20629;-71
2022/05/30 13:03:44;;;;;;;0.60;0.10;;;18.40;99.90;;;;;;5064835;28;20445;-73
2022/05/30 13:06:19;;;;;;;0.93;0.67;;;18.40;99.90;;;;;;5058461;28;20560;-73
2022/05/30 13:09:12;;;;;;;0.60;0.10;;;18.60;99.90;;;;;;5059754;28;20434;-72
2022/05/30 13:12:17;;;;;;;0.60;0.27;;;18.70;99.90;;;;;;5066486;28;20479;-72
2022/05/30 13:15:14;;;;;;;0.60;0.10;;;18.80;99.90;;;;;;5056825;28;20461;-73
2022/05/30 13:17:51;;;;;;;0.60;0.10;;;18.80;99.90;;;;;;5045745;28;20510;-73
2022/05/30 13:20:22;;;;;;;0.60;0.20;;;19.00;99.90;;;;;;5058738;28;20440;-71
2022/05/30 13:22:54;;;;;;;0.60;0.20;;;19.20;99.90;;;;;;5065286;28;20462;-71
2022/05/30 13:25:27;;;;;;;0.60;0.20;;;19.40;99.90;;;;;;5061564;28;20541;-71
2022/05/30 13:27:55;;;;;;;0.60;0.20;;;19.40;99.90;;;;;;5053388;28;20540;-69
2022/05/30 13:30:28;;;;;;;0.70;0.20;;;19.50;99.90;;;;;;5067678;28;20445;-71
2022/05/30 13:32:57;;;;;;;0.60;0.10;;;16.70;99.90;;;;;;5069000;28;21014;-72
2022/05/30 13:35:32;;;;;;;0.60;0.10;;;19.50;99.90;;;;;;5057250;28;20455;-71
2022/05/30 13:38:02;;;;;;;1.80;1.70;;;19.40;99.90;;;;;;5066637;28;20574;-71
2022/05/30 13:40:33;;;;;;;0.60;0.10;;;19.40;99.90;;;;;;5059313;28;20449;-73
2022/05/30 13:43:03;;;;;;;0.60;0.10;;;19.50;99.90;;;;;;5056295;28;20458;-73
2022/05/30 13:45:53;;;;;;;0.60;0.10;;;19.60;99.90;;;;;;5053215;28;20441;-71